createdAt,value
2023-12-09T00:00:32.350Z,18.86
2023-12-09T00:01:32.311Z,18.86
2023-12-09T00:02:32.266Z,18.89
2023-12-09T00:03:32.354Z,18.88
2023-12-09T00:04:32.273Z,18.88
2023-12-09T00:05:32.256Z,18.88
2023-12-09T00:06:32.300Z,18.88
2023-12-09T00:07:32.249Z,18.86
2023-12-09T00:08:32.230Z,18.86
2023-12-09T00:09:32.221Z,18.88
2023-12-09T00:10:32.179Z,18.88
2023-12-09T00:11:32.170Z,18.86
2023-12-09T00:12:32.278Z,18.86
2023-12-09T00:13:32.147Z,18.88
2023-12-09T00:14:32.134Z,18.84
2023-12-09T00:15:32.194Z,18.88
2023-12-09T00:16:32.177Z,18.86
2023-12-09T00:17:32.210Z,18.86
2023-12-09T00:18:32.212Z,18.86
2023-12-09T00:19:32.143Z,18.84
2023-12-09T00:20:32.072Z,18.86
2023-12-09T00:21:32.081Z,18.86
2023-12-09T00:22:32.077Z,18.86
2023-12-09T00:23:32.081Z,18.86
2023-12-09T00:24:32.144Z,18.86
2023-12-09T00:25:32.055Z,18.84
2023-12-09T00:26:32.022Z,18.86
2023-12-09T00:27:32.056Z,18.86
2023-12-09T00:28:31.990Z,18.84
2023-12-09T00:29:31.972Z,18.84
2023-12-09T00:30:31.995Z,18.84
2023-12-09T00:31:31.958Z,18.86
2023-12-09T00:32:32.407Z,18.84
2023-12-09T00:33:32.099Z,18.84
2023-12-09T00:34:31.942Z,18.84
2023-12-09T00:35:31.917Z,18.84
2023-12-09T00:36:31.938Z,18.83
2023-12-09T00:37:31.903Z,18.86
2023-12-09T00:38:31.929Z,18.83
2023-12-09T00:39:31.933Z,18.84
2023-12-09T00:40:31.858Z,18.84
2023-12-09T00:41:31.839Z,18.83
2023-12-09T00:42:31.905Z,18.83
2023-12-09T00:43:31.828Z,18.83
2023-12-09T00:44:31.837Z,18.81
2023-12-09T00:45:31.847Z,18.81
2023-12-09T00:46:31.792Z,18.84
2023-12-09T00:47:31.806Z,18.83
2023-12-09T00:48:31.921Z,18.83
2023-12-09T00:49:31.887Z,18.83
2023-12-09T00:50:31.746Z,18.83
2023-12-09T00:51:31.807Z,18.83
2023-12-09T00:52:31.758Z,18.83
2023-12-09T00:53:31.715Z,18.83
2023-12-09T00:54:31.834Z,18.83
2023-12-09T00:55:31.717Z,18.83
2023-12-09T00:56:34.692Z,18.81
2023-12-09T00:57:31.758Z,18.80
2023-12-09T00:58:31.682Z,18.83
2023-12-09T00:59:31.664Z,18.83
2023-12-09T01:00:31.684Z,18.81
2023-12-09T01:01:31.812Z,18.81
2023-12-09T01:02:31.717Z,18.81
2023-12-09T01:03:31.721Z,18.80
2023-12-09T01:04:31.627Z,18.83
2023-12-09T01:05:31.582Z,18.81
2023-12-09T01:06:31.649Z,18.83
2023-12-09T01:07:31.589Z,18.80
2023-12-09T01:08:31.554Z,18.81
2023-12-09T01:09:31.603Z,18.81
2023-12-09T01:10:31.542Z,18.81
2023-12-09T01:11:31.569Z,18.81
2023-12-09T01:12:31.645Z,18.80
2023-12-09T01:13:31.516Z,18.81
2023-12-09T01:14:31.485Z,18.81
2023-12-09T01:15:31.514Z,18.81
2023-12-09T01:16:31.472Z,18.81
2023-12-09T01:17:31.479Z,18.81
2023-12-09T01:18:31.521Z,18.81
2023-12-09T01:19:31.441Z,18.80
2023-12-09T01:20:31.420Z,18.81
2023-12-09T01:21:31.510Z,18.81
2023-12-09T01:22:31.439Z,18.81
2023-12-09T01:23:31.395Z,18.81
2023-12-09T01:24:31.413Z,18.80
2023-12-09T01:25:31.366Z,18.81
2023-12-09T01:26:31.366Z,18.81
2023-12-09T01:27:31.424Z,18.83
2023-12-09T01:28:31.356Z,18.80
2023-12-09T01:29:31.333Z,18.80
2023-12-09T01:30:31.355Z,18.81
2023-12-09T01:31:31.323Z,18.81
2023-12-09T01:32:31.503Z,18.81
2023-12-09T01:33:31.428Z,18.81
2023-12-09T01:34:31.330Z,18.80
2023-12-09T01:35:31.256Z,18.81
2023-12-09T01:36:31.456Z,18.80
2023-12-09T01:37:31.258Z,18.81
2023-12-09T01:38:31.243Z,18.80
2023-12-09T01:39:31.236Z,18.81
2023-12-09T01:40:31.215Z,18.80
2023-12-09T01:41:31.198Z,18.81
2023-12-09T01:42:31.646Z,18.81
2023-12-09T01:43:31.206Z,18.81
2023-12-09T01:44:31.190Z,18.81
2023-12-09T01:45:31.226Z,18.80
2023-12-09T01:46:31.141Z,18.83
2023-12-09T01:47:31.165Z,18.81
2023-12-09T01:48:31.331Z,18.80
2023-12-09T01:49:31.220Z,18.81
2023-12-09T01:50:31.154Z,18.80
2023-12-09T01:51:31.105Z,18.80
2023-12-09T01:52:31.077Z,18.80
2023-12-09T01:53:31.064Z,18.80
2023-12-09T01:54:31.138Z,18.81
2023-12-09T01:55:31.057Z,18.80
2023-12-09T01:56:31.047Z,18.80
2023-12-09T01:57:31.243Z,18.78
2023-12-09T01:58:31.042Z,18.80
2023-12-09T01:59:31.038Z,18.80
2023-12-09T02:00:31.162Z,18.81
2023-12-09T02:01:30.980Z,18.81
2023-12-09T02:02:31.296Z,18.83
2023-12-09T02:03:31.046Z,18.81
2023-12-09T02:04:30.972Z,18.80
2023-12-09T02:05:30.958Z,18.80
2023-12-09T02:06:30.974Z,18.81
2023-12-09T02:07:30.924Z,18.80
2023-12-09T02:08:30.943Z,18.81
2023-12-09T02:09:30.989Z,18.81
2023-12-09T02:10:30.951Z,18.81
2023-12-09T02:11:30.877Z,18.81
2023-12-09T02:12:31.393Z,18.81
2023-12-09T02:13:30.864Z,18.81
2023-12-09T02:14:30.849Z,18.80
2023-12-09T02:15:30.921Z,18.80
2023-12-09T02:16:30.817Z,18.81
2023-12-09T02:17:30.836Z,18.80
2023-12-09T02:18:30.948Z,18.80
2023-12-09T02:19:30.812Z,18.81
2023-12-09T02:20:30.805Z,18.81
2023-12-09T02:21:30.801Z,18.81
2023-12-09T02:22:30.775Z,18.81
2023-12-09T02:23:30.742Z,18.81
2023-12-09T02:24:30.788Z,18.81
2023-12-09T02:25:30.743Z,18.80
2023-12-09T02:26:30.726Z,18.81
2023-12-09T02:27:30.775Z,18.80
2023-12-09T02:28:30.690Z,18.80
2023-12-09T02:29:30.701Z,18.81
2023-12-09T02:30:30.742Z,18.81
2023-12-09T02:31:30.695Z,18.80
2023-12-09T02:32:30.858Z,18.83
2023-12-09T02:33:30.737Z,18.81
2023-12-09T02:34:30.755Z,18.81
2023-12-09T02:35:30.646Z,18.80
2023-12-09T02:36:30.715Z,18.80
2023-12-09T02:37:30.618Z,18.81
2023-12-09T02:38:30.591Z,18.81
2023-12-09T02:39:30.735Z,18.80
2023-12-09T02:40:30.585Z,18.81
2023-12-09T02:41:30.551Z,18.81
2023-12-09T02:42:30.875Z,18.80
2023-12-09T02:43:30.564Z,18.81
2023-12-09T02:44:30.519Z,18.81
2023-12-09T02:45:30.549Z,18.80
2023-12-09T02:46:30.493Z,18.80
2023-12-09T02:47:30.576Z,18.80
2023-12-09T02:48:30.550Z,18.81
2023-12-09T02:49:30.623Z,18.80
2023-12-09T02:50:30.463Z,18.80
2023-12-09T02:51:30.517Z,18.80
2023-12-09T02:52:30.578Z,18.81
2023-12-09T02:53:30.423Z,18.80
2023-12-09T02:54:30.460Z,18.80
2023-12-09T02:55:30.399Z,18.81
2023-12-09T02:56:30.410Z,18.80
2023-12-09T02:57:30.391Z,18.81
2023-12-09T02:58:30.393Z,18.78
2023-12-09T02:59:30.356Z,18.80
2023-12-09T03:00:30.395Z,18.80
2023-12-09T03:01:30.364Z,18.81
2023-12-09T03:02:30.331Z,18.80
2023-12-09T03:03:30.406Z,18.80
2023-12-09T03:04:30.307Z,18.80
2023-12-09T03:05:30.338Z,18.80
2023-12-09T03:06:30.339Z,18.80
2023-12-09T03:07:30.268Z,18.80
2023-12-09T03:08:30.264Z,18.81
2023-12-09T03:09:30.292Z,18.81
2023-12-09T03:10:30.238Z,18.80
2023-12-09T03:11:30.256Z,18.81
2023-12-09T03:12:30.583Z,18.80
2023-12-09T03:13:30.201Z,18.80
2023-12-09T03:14:30.273Z,18.80
2023-12-09T03:15:30.306Z,18.80
2023-12-09T03:16:30.173Z,18.81
2023-12-09T03:17:30.197Z,18.80
2023-12-09T03:18:30.303Z,18.80
2023-12-09T03:19:30.238Z,18.80
2023-12-09T03:20:30.139Z,18.78
2023-12-09T03:21:30.219Z,18.80
2023-12-09T03:22:30.138Z,18.81
2023-12-09T03:23:30.095Z,18.80
2023-12-09T03:24:30.142Z,18.80
2023-12-09T03:25:30.070Z,18.80
2023-12-09T03:26:30.062Z,18.80
2023-12-09T03:27:30.169Z,18.81
2023-12-09T03:28:30.038Z,18.78
2023-12-09T03:29:30.030Z,18.80
2023-12-09T03:30:30.073Z,18.80
2023-12-09T03:31:30.008Z,18.80
2023-12-09T03:32:30.330Z,18.80
2023-12-09T03:33:30.120Z,18.80
2023-12-09T03:34:30.030Z,18.78
2023-12-09T03:35:29.990Z,18.80
2023-12-09T03:36:30.037Z,18.80
2023-12-09T03:37:29.965Z,18.78
2023-12-09T03:38:29.927Z,18.80
2023-12-09T03:39:30.024Z,18.80
2023-12-09T03:40:29.918Z,18.78
2023-12-09T03:41:29.892Z,18.80
2023-12-09T03:42:30.134Z,18.80
2023-12-09T03:43:29.969Z,18.80
2023-12-09T03:44:29.858Z,18.78
2023-12-09T03:45:29.931Z,18.78
2023-12-09T03:46:29.837Z,18.80
2023-12-09T03:47:30.157Z,18.80
2023-12-09T03:48:29.995Z,18.78
2023-12-09T03:49:29.872Z,18.80
2023-12-09T03:50:29.795Z,18.78
2023-12-09T03:51:29.875Z,18.80
2023-12-09T03:52:30.132Z,18.78
2023-12-09T03:53:29.762Z,18.80
2023-12-09T03:54:29.788Z,18.80
2023-12-09T03:55:29.745Z,18.80
2023-12-09T03:56:29.729Z,18.78
2023-12-09T03:57:29.824Z,18.80
2023-12-09T03:58:29.708Z,18.80
2023-12-09T03:59:29.705Z,18.78
2023-12-09T04:00:29.779Z,18.78
2023-12-09T04:01:29.704Z,18.80
2023-12-09T04:02:30.083Z,18.78
2023-12-09T04:03:29.719Z,18.80
2023-12-09T04:04:29.697Z,18.78
2023-12-09T04:05:29.708Z,18.78
2023-12-09T04:06:29.668Z,18.78
2023-12-09T04:07:29.672Z,18.80
2023-12-09T04:08:29.601Z,18.78
2023-12-09T04:09:29.597Z,18.77
2023-12-09T04:10:29.593Z,18.78
2023-12-09T04:11:29.569Z,18.78
2023-12-09T04:12:29.894Z,18.78
2023-12-09T04:13:29.552Z,18.80
2023-12-09T04:14:29.536Z,18.78
2023-12-09T04:15:29.603Z,18.80
2023-12-09T04:16:29.519Z,18.78
2023-12-09T04:17:29.629Z,18.80
2023-12-09T04:18:29.632Z,18.78
2023-12-09T04:19:29.614Z,18.78
2023-12-09T04:20:29.549Z,18.78
2023-12-09T04:21:29.485Z,18.78
2023-12-09T04:22:29.610Z,18.80
2023-12-09T04:23:29.506Z,18.78
2023-12-09T04:24:29.463Z,18.78
2023-12-09T04:25:29.418Z,18.78
2023-12-09T04:26:29.417Z,18.78
2023-12-09T04:27:29.430Z,18.78
2023-12-09T04:28:29.395Z,18.78
2023-12-09T04:29:29.400Z,18.78
2023-12-09T04:30:29.395Z,18.77
2023-12-09T04:31:29.356Z,18.78
2023-12-09T04:32:29.721Z,18.77
2023-12-09T04:33:29.358Z,18.78
2023-12-09T04:34:29.363Z,18.77
2023-12-09T04:35:29.319Z,18.78
2023-12-09T04:36:29.366Z,18.77
2023-12-09T04:37:29.287Z,18.77
2023-12-09T04:38:29.308Z,18.78
2023-12-09T04:39:29.310Z,18.78
2023-12-09T04:40:29.254Z,18.75
2023-12-09T04:41:29.268Z,18.77
2023-12-09T04:42:29.785Z,18.77
2023-12-09T04:43:29.221Z,18.75
2023-12-09T04:44:29.209Z,18.77
2023-12-09T04:45:29.239Z,18.78
2023-12-09T04:46:29.188Z,18.77
2023-12-09T04:47:29.254Z,18.77
2023-12-09T04:48:29.271Z,18.78
2023-12-09T04:49:29.627Z,18.77
2023-12-09T04:50:29.146Z,18.77
2023-12-09T04:51:29.235Z,18.77
2023-12-09T04:52:29.402Z,18.77
2023-12-09T04:53:29.124Z,18.75
2023-12-09T04:54:29.154Z,18.75
2023-12-09T04:55:29.111Z,18.77
2023-12-09T04:56:29.099Z,18.77
2023-12-09T04:57:29.110Z,18.75
2023-12-09T04:58:29.051Z,18.77
2023-12-09T04:59:29.074Z,18.77
2023-12-09T05:00:29.066Z,18.78
2023-12-09T05:01:29.058Z,18.77
2023-12-09T05:02:29.428Z,18.77
2023-12-09T05:03:29.067Z,18.75
2023-12-09T05:04:29.027Z,18.77
2023-12-09T05:05:29.021Z,18.77
2023-12-09T05:06:29.012Z,18.75
2023-12-09T05:07:28.952Z,18.77
2023-12-09T05:08:28.969Z,18.77
2023-12-09T05:09:28.986Z,18.77
2023-12-09T05:10:28.920Z,18.75
2023-12-09T05:11:28.948Z,18.78
2023-12-09T05:12:29.176Z,18.77
2023-12-09T05:13:28.912Z,18.77
2023-12-09T05:14:28.884Z,18.77
2023-12-09T05:15:31.897Z,18.78
2023-12-09T05:16:28.882Z,18.77
2023-12-09T05:17:28.887Z,18.77
2023-12-09T05:18:29.015Z,18.77
2023-12-09T05:19:29.104Z,18.77
2023-12-09T05:20:28.819Z,18.77
2023-12-09T05:21:35.452Z,18.78
2023-12-09T05:22:30.141Z,18.75
2023-12-09T05:23:28.775Z,18.78
2023-12-09T05:24:28.820Z,18.77
2023-12-09T05:25:28.755Z,18.78
2023-12-09T05:26:28.776Z,18.78
2023-12-09T05:27:28.814Z,18.78
2023-12-09T05:28:28.718Z,18.77
2023-12-09T05:29:28.717Z,18.78
2023-12-09T05:30:28.726Z,18.78
2023-12-09T05:31:28.685Z,18.80
2023-12-09T05:32:29.029Z,18.80
2023-12-09T05:33:28.781Z,18.78
2023-12-09T05:34:28.896Z,18.80
2023-12-09T05:35:28.640Z,18.80
2023-12-09T05:36:28.712Z,18.81
2023-12-09T05:37:28.721Z,18.81
2023-12-09T05:38:28.610Z,18.81
2023-12-09T05:39:28.676Z,18.83
2023-12-09T05:40:28.619Z,18.83
2023-12-09T05:41:28.573Z,18.83
2023-12-09T05:42:28.932Z,18.81
2023-12-09T05:43:28.594Z,18.83
2023-12-09T05:44:28.546Z,18.84
2023-12-09T05:45:28.544Z,18.83
2023-12-09T05:46:28.521Z,18.83
2023-12-09T05:47:28.621Z,18.84
2023-12-09T05:48:28.626Z,18.84
2023-12-09T05:49:28.564Z,18.84
2023-12-09T05:50:28.474Z,18.86
2023-12-09T05:51:28.492Z,18.86
2023-12-09T05:52:29.135Z,18.84
2023-12-09T05:53:28.450Z,18.86
2023-12-09T05:54:28.509Z,18.86
2023-12-09T05:55:28.415Z,18.86
2023-12-09T05:56:28.417Z,18.86
2023-12-09T05:57:28.461Z,18.88
2023-12-09T05:58:28.388Z,18.88
2023-12-09T05:59:28.428Z,18.88
2023-12-09T06:00:28.477Z,18.88
2023-12-09T06:01:28.446Z,18.88
2023-12-09T06:02:28.615Z,18.88
2023-12-09T06:03:28.396Z,18.89
2023-12-09T06:04:28.389Z,18.86
2023-12-09T06:05:28.340Z,18.88
2023-12-09T06:06:28.385Z,18.88
2023-12-09T06:07:28.295Z,18.90
2023-12-09T06:08:28.304Z,18.86
2023-12-09T06:09:28.321Z,18.90
2023-12-09T06:10:28.260Z,18.88
2023-12-09T06:11:28.322Z,18.90
2023-12-09T06:12:28.632Z,18.90
2023-12-09T06:13:28.221Z,18.89
2023-12-09T06:14:28.216Z,18.89
2023-12-09T06:15:28.323Z,18.89
2023-12-09T06:16:28.195Z,18.89
2023-12-09T06:17:28.197Z,18.90
2023-12-09T06:18:28.234Z,18.90
2023-12-09T06:19:28.221Z,18.89
2023-12-09T06:20:28.150Z,18.90
2023-12-09T06:21:28.159Z,18.89
2023-12-09T06:22:28.342Z,18.90
2023-12-09T06:23:28.122Z,18.89
2023-12-09T06:24:28.239Z,18.89
2023-12-09T06:25:28.090Z,18.89
2023-12-09T06:26:28.082Z,18.89
2023-12-09T06:27:28.098Z,18.90
2023-12-09T06:28:28.058Z,18.89
2023-12-09T06:29:28.074Z,18.89
2023-12-09T06:30:28.083Z,18.89
2023-12-09T06:31:28.056Z,18.90
2023-12-09T06:32:28.260Z,18.90
2023-12-09T06:33:28.094Z,18.89
2023-12-09T06:34:28.087Z,18.92
2023-12-09T06:35:27.974Z,18.90
2023-12-09T06:36:28.043Z,18.92
2023-12-09T06:37:27.989Z,18.92
2023-12-09T06:38:27.950Z,18.90
2023-12-09T06:39:27.982Z,18.92
2023-12-09T06:40:27.923Z,18.92
2023-12-09T06:41:27.906Z,18.92
2023-12-09T06:42:28.230Z,18.92
2023-12-09T06:43:27.886Z,18.92
2023-12-09T06:44:27.898Z,18.92
2023-12-09T06:45:27.917Z,18.93
2023-12-09T06:46:27.868Z,18.92
2023-12-09T06:47:27.948Z,18.93
2023-12-09T06:48:27.952Z,18.93
2023-12-09T06:49:27.883Z,18.93
2023-12-09T06:50:27.828Z,18.92
2023-12-09T06:51:27.849Z,18.92
2023-12-09T06:52:28.023Z,18.93
2023-12-09T06:53:27.778Z,18.93
2023-12-09T06:54:27.872Z,18.93
2023-12-09T06:55:27.757Z,18.92
2023-12-09T06:56:27.758Z,18.92
2023-12-09T06:57:27.844Z,18.93
2023-12-09T06:58:27.747Z,18.93
2023-12-09T06:59:27.741Z,18.95
2023-12-09T07:00:27.781Z,18.95
2023-12-09T07:01:27.761Z,18.95
2023-12-09T07:02:34.729Z,18.95
2023-12-09T07:03:28.791Z,18.95
2023-12-09T07:05:28.027Z,18.96
2023-12-09T07:06:27.711Z,18.95
2023-12-09T07:07:27.621Z,18.96
2023-12-09T07:08:30.659Z,18.95
2023-12-09T07:09:27.652Z,18.95
2023-12-09T07:10:27.586Z,18.96
2023-12-09T07:11:27.621Z,18.96
2023-12-09T07:12:27.789Z,18.98
2023-12-09T07:13:27.554Z,18.96
2023-12-09T07:14:27.587Z,18.95
2023-12-09T07:15:27.680Z,18.96
2023-12-09T07:16:27.548Z,18.98
2023-12-09T07:17:27.649Z,18.98
2023-12-09T07:18:27.679Z,18.96
2023-12-09T07:19:27.703Z,18.98
2023-12-09T07:20:27.545Z,18.96
2023-12-09T07:21:27.558Z,18.98
2023-12-09T07:22:27.713Z,18.98
2023-12-09T07:23:27.445Z,18.98
2023-12-09T07:24:27.445Z,18.98
2023-12-09T07:25:27.426Z,18.98
2023-12-09T07:26:27.414Z,18.99
2023-12-09T07:27:27.495Z,18.99
2023-12-09T07:28:27.392Z,18.98
2023-12-09T07:30:27.437Z,18.99
2023-12-09T07:31:27.378Z,19.00
2023-12-09T07:32:27.585Z,19.00
2023-12-09T07:33:27.410Z,18.99
2023-12-09T07:34:27.446Z,18.99
2023-12-09T07:35:27.340Z,19.00
2023-12-09T07:36:27.362Z,18.99
2023-12-09T07:37:27.567Z,18.98
2023-12-09T07:38:27.324Z,18.99
2023-12-09T07:39:27.313Z,18.99
2023-12-09T07:40:27.264Z,18.99
2023-12-09T07:41:27.270Z,18.98
2023-12-09T07:42:27.454Z,18.99
2023-12-09T07:43:27.223Z,19.00
2023-12-09T07:44:27.244Z,18.99
2023-12-09T07:45:27.249Z,18.99
2023-12-09T07:46:27.196Z,19.00
2023-12-09T07:47:27.178Z,18.99
2023-12-09T07:48:27.312Z,18.99
2023-12-09T07:49:27.265Z,19.00
2023-12-09T07:50:27.144Z,18.99
2023-12-09T07:51:27.168Z,18.99
2023-12-09T07:52:27.482Z,19.00
2023-12-09T07:53:27.158Z,18.99
2023-12-09T07:54:27.145Z,18.99
2023-12-09T07:55:27.086Z,18.99
2023-12-09T07:56:27.080Z,19.00
2023-12-09T07:57:27.128Z,19.00
2023-12-09T07:58:27.068Z,19.00
2023-12-09T07:59:27.079Z,19.00
2023-12-09T08:00:27.243Z,19.02
2023-12-09T08:01:27.048Z,19.02
2023-12-09T08:02:27.237Z,19.00
2023-12-09T08:03:27.089Z,19.00
2023-12-09T08:04:27.052Z,18.99
2023-12-09T08:05:27.038Z,18.99
2023-12-09T08:06:27.019Z,18.99
2023-12-09T08:07:27.156Z,18.99
2023-12-09T08:08:26.952Z,18.99
2023-12-09T08:09:27.003Z,19.00
2023-12-09T08:10:26.920Z,18.99
2023-12-09T08:11:26.939Z,19.00
2023-12-09T08:12:27.187Z,18.99
2023-12-09T08:13:26.886Z,18.99
2023-12-09T08:14:26.885Z,18.99
2023-12-09T08:15:26.959Z,19.00
2023-12-09T08:16:26.873Z,19.00
2023-12-09T08:17:27.042Z,19.02
2023-12-09T08:18:27.207Z,19.04
2023-12-09T08:19:26.914Z,19.04
2023-12-09T08:20:26.808Z,19.04
2023-12-09T08:21:26.932Z,19.07
2023-12-09T08:22:27.116Z,19.07
2023-12-09T08:23:26.799Z,19.04
2023-12-09T08:24:26.796Z,19.08
2023-12-09T08:25:26.758Z,19.07
2023-12-09T08:26:26.745Z,19.08
2023-12-09T08:27:26.814Z,19.08
2023-12-09T08:28:26.721Z,19.08
2023-12-09T08:29:29.296Z,19.09
2023-12-09T08:30:26.771Z,19.11
2023-12-09T08:31:26.712Z,19.11
2023-12-09T08:32:26.931Z,19.11
2023-12-09T08:33:26.798Z,19.12
2023-12-09T08:34:26.853Z,19.12
2023-12-09T08:35:26.748Z,19.14
2023-12-09T08:36:26.681Z,19.14
2023-12-09T08:37:26.739Z,19.14
2023-12-09T08:38:26.652Z,19.14
2023-12-09T08:39:26.690Z,19.14
2023-12-09T08:40:26.632Z,19.15
2023-12-09T08:41:29.321Z,19.16
2023-12-09T08:42:26.999Z,19.18
2023-12-09T08:43:26.545Z,19.16
2023-12-09T08:44:26.537Z,19.18
2023-12-09T08:45:26.571Z,19.18
2023-12-09T08:46:26.539Z,19.18
2023-12-09T08:47:26.552Z,19.19
2023-12-09T08:48:26.724Z,19.18
2023-12-09T08:49:26.588Z,19.19
2023-12-09T08:50:26.509Z,19.19
2023-12-09T08:51:26.507Z,19.19
2023-12-09T08:52:26.650Z,19.18
2023-12-09T08:53:26.432Z,19.21
2023-12-09T08:54:26.476Z,19.21
2023-12-09T08:55:26.440Z,19.21
2023-12-09T08:56:26.450Z,19.21
2023-12-09T08:57:26.435Z,19.19
2023-12-09T08:58:26.387Z,19.19
2023-12-09T08:59:26.369Z,19.21
2023-12-09T09:00:26.389Z,19.21
2023-12-09T09:01:26.383Z,19.21
2023-12-09T09:02:26.659Z,19.22
2023-12-09T09:03:26.408Z,19.21
2023-12-09T09:04:26.341Z,19.21
2023-12-09T09:05:26.466Z,19.22
2023-12-09T09:06:26.317Z,19.22
2023-12-09T09:07:26.304Z,19.22
2023-12-09T09:08:26.266Z,19.22
2023-12-09T09:09:26.331Z,19.22
2023-12-09T09:10:26.245Z,19.22
2023-12-09T09:11:26.263Z,19.24
2023-12-09T09:12:26.777Z,19.22
2023-12-09T09:13:26.235Z,19.22
2023-12-09T09:14:26.198Z,19.22
2023-12-09T09:15:26.230Z,19.22
2023-12-09T09:16:26.181Z,19.24
2023-12-09T09:17:26.178Z,19.26
2023-12-09T09:18:26.329Z,19.24
2023-12-09T09:19:26.263Z,19.27
2023-12-09T09:20:26.156Z,19.26
2023-12-09T09:21:26.165Z,19.29
2023-12-09T09:22:26.361Z,19.26
2023-12-09T09:23:26.137Z,19.27
2023-12-09T09:24:26.128Z,19.29
2023-12-09T09:25:26.081Z,19.27
2023-12-09T09:26:26.095Z,19.29
2023-12-09T09:27:26.175Z,19.29
2023-12-09T09:28:26.137Z,19.30
2023-12-09T09:29:26.038Z,19.30
2023-12-09T09:30:26.047Z,19.30
2023-12-09T09:31:26.016Z,19.31
2023-12-09T09:32:26.382Z,19.31
2023-12-09T09:33:29.067Z,19.33
2023-12-09T09:34:26.032Z,19.33
2023-12-09T09:35:26.000Z,19.33
2023-12-09T09:36:26.042Z,19.31
2023-12-09T09:37:25.946Z,19.33
2023-12-09T09:38:25.944Z,19.33
2023-12-09T09:39:25.944Z,19.33
2023-12-09T09:40:25.938Z,19.34
2023-12-09T09:41:25.901Z,19.33
2023-12-09T09:42:26.067Z,19.34
2023-12-09T09:43:25.935Z,19.33
2023-12-09T09:44:25.870Z,19.34
2023-12-09T09:45:28.915Z,19.34
2023-12-09T09:46:26.867Z,19.34
2023-12-09T09:47:25.867Z,19.34
2023-12-09T09:48:26.134Z,19.30
2023-12-09T09:49:25.903Z,19.29
2023-12-09T09:50:25.815Z,19.27
2023-12-09T09:51:27.266Z,19.29
2023-12-09T09:52:26.058Z,19.27
2023-12-09T09:53:25.790Z,19.26
2023-12-09T09:54:25.767Z,19.24
2023-12-09T09:55:25.863Z,19.22
2023-12-09T09:56:25.787Z,19.22
2023-12-09T09:57:28.036Z,19.21
2023-12-09T09:58:25.729Z,19.21
2023-12-09T09:59:25.724Z,19.19
2023-12-09T10:00:25.771Z,19.18
2023-12-09T10:01:25.740Z,19.18
2023-12-09T10:02:25.902Z,19.18
2023-12-09T10:03:25.688Z,19.18
2023-12-09T10:04:25.700Z,19.18
2023-12-09T10:05:25.736Z,19.16
2023-12-09T10:06:25.706Z,19.16
2023-12-09T10:07:25.762Z,19.16
2023-12-09T10:08:25.596Z,19.15
2023-12-09T10:09:25.626Z,19.16
2023-12-09T10:10:25.611Z,19.15
2023-12-09T10:11:25.575Z,19.14
2023-12-09T10:12:25.844Z,19.15
2023-12-09T10:13:25.553Z,19.15
2023-12-09T10:14:25.556Z,19.14
2023-12-09T10:15:25.689Z,19.15
2023-12-09T10:16:25.537Z,19.14
2023-12-09T10:17:25.499Z,19.15
2023-12-09T10:18:25.681Z,19.14
2023-12-09T10:19:25.669Z,19.15
2023-12-09T10:20:25.466Z,19.14
2023-12-09T10:21:25.483Z,19.12
2023-12-09T10:22:25.741Z,19.14
2023-12-09T10:23:25.447Z,19.14
2023-12-09T10:24:25.498Z,19.14
2023-12-09T10:25:25.484Z,19.14
2023-12-09T10:26:25.400Z,19.14
2023-12-09T10:27:25.450Z,19.14
2023-12-09T10:28:25.402Z,19.14
2023-12-09T10:29:25.368Z,19.09
2023-12-09T10:30:25.400Z,19.11
2023-12-09T10:31:25.369Z,19.11
2023-12-09T10:32:25.623Z,19.09
2023-12-09T10:33:25.448Z,19.09
2023-12-09T10:34:25.456Z,19.09
2023-12-09T10:35:25.300Z,19.09
2023-12-09T10:36:25.388Z,19.09
2023-12-09T10:37:25.274Z,19.08
2023-12-09T10:38:25.265Z,19.09
2023-12-09T10:39:25.379Z,19.09
2023-12-09T10:40:26.911Z,19.11
2023-12-09T10:41:25.235Z,19.11
2023-12-09T10:42:25.445Z,19.11
2023-12-09T10:43:25.218Z,19.09
2023-12-09T10:44:25.224Z,19.08
2023-12-09T10:45:25.336Z,19.09
2023-12-09T10:46:25.180Z,19.09
2023-12-09T10:47:25.238Z,19.11
2023-12-09T10:48:25.340Z,19.09
2023-12-09T10:49:25.251Z,19.08
2023-12-09T10:50:25.138Z,19.09
2023-12-09T10:51:25.176Z,19.09
2023-12-09T10:52:25.376Z,19.09
2023-12-09T10:53:25.103Z,19.08
2023-12-09T10:54:25.141Z,19.07
2023-12-09T10:55:25.111Z,19.08
2023-12-09T10:56:25.071Z,19.08
2023-12-09T10:57:25.118Z,19.08
2023-12-09T10:58:25.054Z,19.07
2023-12-09T10:59:25.037Z,19.08
2023-12-09T11:00:25.099Z,19.08
2023-12-09T11:01:25.049Z,19.08
2023-12-09T11:02:25.089Z,19.07
2023-12-09T11:03:25.060Z,19.07
2023-12-09T11:04:25.143Z,19.07
2023-12-09T11:05:25.045Z,19.07
2023-12-09T11:06:25.006Z,19.08
2023-12-09T11:07:24.950Z,19.09
2023-12-09T11:08:24.965Z,19.08
2023-12-09T11:09:25.009Z,19.08
2023-12-09T11:10:24.940Z,19.07
2023-12-09T11:11:24.904Z,19.08
2023-12-09T11:12:25.141Z,19.08
2023-12-09T11:13:24.885Z,19.08
2023-12-09T11:14:24.873Z,19.08
2023-12-09T11:15:24.899Z,19.07
2023-12-09T11:16:24.861Z,19.07
2023-12-09T11:17:25.084Z,19.07
2023-12-09T11:18:25.090Z,19.04
2023-12-09T11:19:25.034Z,19.08
2023-12-09T11:20:25.073Z,19.07
2023-12-09T11:21:24.856Z,19.08
2023-12-09T11:22:24.895Z,19.07
2023-12-09T11:23:24.780Z,19.07
2023-12-09T11:24:24.801Z,19.04
2023-12-09T11:25:25.032Z,19.04
2023-12-09T11:26:24.741Z,19.08
2023-12-09T11:27:24.760Z,19.07
2023-12-09T11:28:24.739Z,19.07
2023-12-09T11:29:24.733Z,19.08
2023-12-09T11:30:24.729Z,19.07
2023-12-09T11:31:24.708Z,19.04
2023-12-09T11:32:24.830Z,19.07
2023-12-09T11:33:24.788Z,19.07
2023-12-09T11:34:24.836Z,19.07
2023-12-09T11:35:24.697Z,19.07
2023-12-09T11:36:25.760Z,19.07
2023-12-09T11:37:24.621Z,19.04
2023-12-09T11:38:24.612Z,19.07
2023-12-09T11:39:24.803Z,19.07
2023-12-09T11:40:24.584Z,19.04
2023-12-09T11:41:24.606Z,19.07
2023-12-09T11:42:24.658Z,19.07
2023-12-09T11:43:24.567Z,19.07
2023-12-09T11:44:24.558Z,19.07
2023-12-09T11:45:24.576Z,19.04
2023-12-09T11:46:24.524Z,19.04
2023-12-09T11:47:24.622Z,19.04
2023-12-09T11:48:24.599Z,19.04
2023-12-09T11:49:24.517Z,19.07
2023-12-09T11:50:24.483Z,19.04
2023-12-09T11:51:24.533Z,19.02
2023-12-09T11:52:24.542Z,19.02
2023-12-09T11:53:24.484Z,19.02
2023-12-09T11:54:24.513Z,19.02
2023-12-09T11:55:24.425Z,19.02
2023-12-09T11:56:24.418Z,19.02
2023-12-09T11:57:24.450Z,19.00
2023-12-09T11:58:24.413Z,19.02
2023-12-09T11:59:24.378Z,19.00
2023-12-09T12:00:24.469Z,19.00
2023-12-09T12:01:24.438Z,19.02
2023-12-09T12:02:24.355Z,19.00
2023-12-09T12:03:24.374Z,19.02
2023-12-09T12:04:24.351Z,19.02
2023-12-09T12:05:24.453Z,19.02
2023-12-09T12:06:24.319Z,19.02
2023-12-09T12:07:24.329Z,19.00
2023-12-09T12:08:24.282Z,19.00
2023-12-09T12:09:24.303Z,19.02
2023-12-09T12:10:24.284Z,19.00
2023-12-09T12:11:24.289Z,19.02
2023-12-09T12:12:24.330Z,19.02
2023-12-09T12:13:24.226Z,19.00
2023-12-09T12:14:24.218Z,19.02
2023-12-09T12:15:24.269Z,19.02
2023-12-09T12:16:24.192Z,19.02
2023-12-09T12:17:24.246Z,19.00
2023-12-09T12:18:24.317Z,19.02
2023-12-09T12:19:24.208Z,19.00
2023-12-09T12:20:24.217Z,19.00
2023-12-09T12:21:24.175Z,19.00
2023-12-09T12:22:24.297Z,19.02
2023-12-09T12:23:32.364Z,19.02
2023-12-09T12:24:25.121Z,19.02
2023-12-09T12:25:24.090Z,19.00
2023-12-09T12:26:24.104Z,19.00
2023-12-09T12:27:26.847Z,19.00
2023-12-09T12:28:24.063Z,19.00
2023-12-09T12:29:24.049Z,19.02
2023-12-09T12:30:24.119Z,19.02
2023-12-09T12:31:24.051Z,19.02
2023-12-09T12:32:24.024Z,19.00
2023-12-09T12:33:24.133Z,19.00
2023-12-09T12:34:24.117Z,19.00
2023-12-09T12:35:24.024Z,19.00
2023-12-09T12:36:23.999Z,19.00
2023-12-09T12:37:23.968Z,18.99
2023-12-09T12:38:23.958Z,19.00
2023-12-09T12:39:27.566Z,19.00
2023-12-09T12:40:23.969Z,19.00
2023-12-09T12:41:23.918Z,19.02
2023-12-09T12:42:23.917Z,19.00
2023-12-09T12:43:23.897Z,19.00
2023-12-09T12:44:23.898Z,19.00
2023-12-09T12:45:27.084Z,19.02
2023-12-09T12:46:23.866Z,19.00
2023-12-09T12:47:23.860Z,19.00
2023-12-09T12:48:24.000Z,19.00
2023-12-09T12:49:23.917Z,19.00
2023-12-09T12:50:23.847Z,19.00
2023-12-09T12:51:26.305Z,19.00
2023-12-09T12:52:23.797Z,19.00
2023-12-09T12:53:23.821Z,19.02
2023-12-09T12:54:23.792Z,19.00